createdAt,value
2023-02-15T00:01:21.172Z,4.35
2023-02-15T00:03:57.547Z,4.38
2023-02-15T00:06:35.070Z,4.40
2023-02-15T00:09:12.556Z,4.38
2023-02-15T00:11:52.093Z,4.38
2023-02-15T00:14:29.634Z,4.40
2023-02-15T00:17:06.175Z,4.39
2023-02-15T00:19:42.511Z,4.35
2023-02-15T00:22:18.712Z,4.33
2023-02-15T00:24:55.023Z,4.32
2023-02-15T00:27:31.622Z,4.32
2023-02-15T00:30:10.010Z,4.30
2023-02-15T00:32:46.370Z,4.29
2023-02-15T00:35:22.897Z,4.29
2023-02-15T00:37:59.560Z,4.28
2023-02-15T00:40:35.879Z,4.29
2023-02-15T00:43:12.121Z,4.29
2023-02-15T00:45:53.768Z,4.27
2023-02-15T00:48:30.758Z,4.28
2023-02-15T00:51:07.388Z,4.28
2023-02-15T00:53:43.851Z,4.30
2023-02-15T00:56:20.322Z,4.29
2023-02-15T00:58:56.654Z,4.26
2023-02-15T01:01:33.000Z,4.20
2023-02-15T01:04:10.251Z,4.20
2023-02-15T01:06:46.703Z,4.22
2023-02-15T01:09:23.425Z,4.23
2023-02-15T01:11:59.852Z,4.26
2023-02-15T01:14:36.542Z,4.23
2023-02-15T01:17:14.854Z,4.22
2023-02-15T01:19:52.369Z,4.21
2023-02-15T01:22:29.158Z,4.18
2023-02-15T01:25:05.928Z,4.17
2023-02-15T01:27:42.238Z,4.18
2023-02-15T01:30:20.707Z,4.17
2023-02-15T01:32:58.359Z,4.15
2023-02-15T01:35:35.247Z,4.15
2023-02-15T01:38:11.596Z,4.14
2023-02-15T01:40:47.953Z,4.14
2023-02-15T01:43:40.904Z,4.14
2023-02-15T01:46:21.312Z,4.12
2023-02-15T01:49:11.078Z,4.10
2023-02-15T01:51:53.561Z,4.11
2023-02-15T01:54:36.970Z,4.09
2023-02-15T01:57:21.712Z,4.09
2023-02-15T02:00:04.051Z,4.03
2023-02-15T02:02:56.215Z,3.98
2023-02-15T02:05:36.444Z,3.95
2023-02-15T02:08:14.268Z,3.94
2023-02-15T02:10:50.672Z,3.93
2023-02-15T02:13:27.144Z,3.90
2023-02-15T02:16:13.852Z,3.88
2023-02-15T02:19:12.291Z,3.85
2023-02-15T02:22:52.439Z,3.83
2023-02-15T02:26:43.126Z,3.82
2023-02-15T02:30:38.293Z,3.81
2023-02-15T02:33:56.368Z,3.79
2023-02-15T02:36:48.530Z,3.77
2023-02-15T02:39:44.825Z,3.75
2023-02-15T02:42:34.545Z,3.76
2023-02-15T02:45:18.846Z,3.75
2023-02-15T02:48:03.129Z,3.75
2023-02-15T02:50:43.195Z,3.73
2023-02-15T02:53:19.667Z,3.74
2023-02-15T02:56:01.843Z,3.76
2023-02-15T02:58:48.315Z,3.77
2023-02-15T03:01:34.222Z,3.78
2023-02-15T03:04:16.532Z,3.78
2023-02-15T03:06:57.503Z,3.77
2023-02-15T03:09:43.639Z,3.77
2023-02-15T03:12:26.668Z,3.78
2023-02-15T03:15:12.131Z,3.77
2023-02-15T03:17:55.473Z,3.76
2023-02-15T03:20:38.890Z,3.76
2023-02-15T03:23:24.122Z,3.76
2023-02-15T03:26:08.472Z,3.78
2023-02-15T03:28:52.071Z,3.79
2023-02-15T03:31:34.077Z,3.78
2023-02-15T03:34:15.348Z,3.75
2023-02-15T03:37:01.948Z,3.73
2023-02-15T03:39:45.444Z,3.72
2023-02-15T03:42:31.847Z,3.74
2023-02-15T03:45:16.916Z,3.72
2023-02-15T03:47:58.070Z,3.71
2023-02-15T03:50:55.910Z,3.66
2023-02-15T03:53:32.898Z,3.63
2023-02-15T03:56:09.659Z,3.61
2023-02-15T03:59:03.349Z,3.58
2023-02-15T04:02:01.866Z,3.56
2023-02-15T04:04:48.387Z,3.52
2023-02-15T04:07:25.184Z,3.50
2023-02-15T04:10:18.672Z,3.49
2023-02-15T04:12:54.985Z,3.48
2023-02-15T04:15:49.285Z,3.49
2023-02-15T04:18:43.450Z,3.48
2023-02-15T04:21:37.789Z,3.48
2023-02-15T04:24:33.023Z,3.48
2023-02-15T04:27:10.181Z,3.48
2023-02-15T04:29:46.469Z,3.46
2023-02-15T04:32:22.992Z,3.45
2023-02-15T04:34:59.389Z,3.47
2023-02-15T04:37:35.666Z,3.47
2023-02-15T04:40:18.681Z,3.50
2023-02-15T04:42:55.905Z,3.50
2023-02-15T04:45:32.256Z,3.49
2023-02-15T04:48:09.726Z,3.50
2023-02-15T04:50:46.389Z,3.50
2023-02-15T04:53:22.869Z,3.50
2023-02-15T04:55:59.569Z,3.49
2023-02-15T04:58:36.278Z,3.47
2023-02-15T05:01:13.277Z,3.46
2023-02-15T05:03:49.849Z,3.48
2023-02-15T05:06:26.749Z,3.49
2023-02-15T05:09:03.217Z,3.48
2023-02-15T05:11:39.515Z,3.44
2023-02-15T05:14:15.847Z,3.45
2023-02-15T05:16:52.174Z,3.43
2023-02-15T05:19:28.825Z,3.42
2023-02-15T05:22:05.111Z,3.41
2023-02-15T05:24:59.126Z,3.40
2023-02-15T05:27:53.172Z,3.39
2023-02-15T05:30:30.274Z,3.38
2023-02-15T05:33:06.959Z,3.39
2023-02-15T05:35:43.851Z,3.39
2023-02-15T05:38:20.140Z,3.36
2023-02-15T05:40:57.989Z,3.35
2023-02-15T05:43:34.969Z,3.35
2023-02-15T05:46:12.294Z,3.35
2023-02-15T05:48:48.600Z,3.36
2023-02-15T05:51:25.300Z,3.34
2023-02-15T05:54:01.518Z,3.34
2023-02-15T05:56:37.721Z,3.34
2023-02-15T05:59:14.378Z,3.35
2023-02-15T06:01:50.647Z,3.35
2023-02-15T06:04:27.211Z,3.36
2023-02-15T06:07:03.703Z,3.40
2023-02-15T06:09:40.153Z,3.41
2023-02-15T06:12:16.431Z,3.42
2023-02-15T06:14:52.807Z,3.42
2023-02-15T06:17:29.498Z,3.42
2023-02-15T06:20:07.935Z,3.44
2023-02-15T06:22:44.401Z,3.44
2023-02-15T06:25:22.021Z,3.46
2023-02-15T06:27:58.361Z,3.44
2023-02-15T06:30:35.602Z,3.40
2023-02-15T06:33:11.850Z,3.40
2023-02-15T06:35:48.612Z,3.40
2023-02-15T06:38:24.944Z,3.41
2023-02-15T06:41:01.384Z,3.42
2023-02-15T06:43:39.987Z,3.43
2023-02-15T06:46:17.315Z,3.42
2023-02-15T06:48:53.852Z,3.42
2023-02-15T06:51:30.173Z,3.44
2023-02-15T06:54:06.727Z,3.47
2023-02-15T06:56:43.248Z,3.49
2023-02-15T06:59:19.958Z,3.50
2023-02-15T07:01:56.556Z,3.52
2023-02-15T07:04:32.941Z,3.52
2023-02-15T07:07:12.594Z,3.51
2023-02-15T07:09:48.963Z,3.50
2023-02-15T07:12:43.864Z,3.49
2023-02-15T07:15:23.170Z,3.54
2023-02-15T07:18:00.881Z,3.57
2023-02-15T07:20:37.964Z,3.60
2023-02-15T07:23:14.263Z,3.64
2023-02-15T07:25:50.592Z,3.67
2023-02-15T07:28:27.162Z,3.70
2023-02-15T07:31:04.965Z,3.71
2023-02-15T07:33:41.515Z,3.73
2023-02-15T07:36:17.822Z,3.73
2023-02-15T07:38:54.265Z,3.73
2023-02-15T07:41:30.530Z,3.74
2023-02-15T07:44:07.403Z,3.74
2023-02-15T07:46:44.145Z,3.77
2023-02-15T07:49:21.051Z,3.78
2023-02-15T07:51:57.531Z,3.79
2023-02-15T07:54:34.286Z,3.85
2023-02-15T07:57:10.667Z,3.90
2023-02-15T07:59:47.033Z,3.94
2023-02-15T08:02:23.616Z,3.94
2023-02-15T08:05:00.102Z,3.99
2023-02-15T08:07:36.799Z,4.02
2023-02-15T08:10:34.711Z,4.08
2023-02-15T08:13:11.101Z,4.06
2023-02-15T08:15:53.833Z,4.08
2023-02-15T08:18:30.260Z,4.08
2023-02-15T08:21:07.436Z,4.09
2023-02-15T08:23:43.707Z,4.15
2023-02-15T08:26:20.333Z,4.25
2023-02-15T08:28:57.527Z,4.34
2023-02-15T08:31:34.090Z,4.42
2023-02-15T08:34:12.575Z,4.49
2023-02-15T08:36:49.487Z,4.55
2023-02-15T08:39:26.275Z,4.61
2023-02-15T08:42:05.028Z,4.66
2023-02-15T08:44:41.755Z,4.71
2023-02-15T08:47:18.083Z,4.73
2023-02-15T08:49:55.065Z,4.75
2023-02-15T08:52:31.731Z,4.82
2023-02-15T08:55:09.444Z,4.93
2023-02-15T08:57:47.019Z,5.06
2023-02-15T09:00:26.163Z,5.13
2023-02-15T09:03:02.501Z,5.21
2023-02-15T09:05:39.006Z,5.32
2023-02-15T09:08:15.502Z,5.37
2023-02-15T09:10:51.777Z,5.37
2023-02-15T09:13:28.273Z,5.37
2023-02-15T09:16:11.399Z,5.40
2023-02-15T09:18:48.503Z,5.51
2023-02-15T09:21:27.530Z,5.63
2023-02-15T09:24:08.975Z,5.73
2023-02-15T09:26:50.157Z,5.94
2023-02-15T09:29:26.629Z,6.02
2023-02-15T09:32:02.917Z,6.09
2023-02-15T09:34:39.509Z,6.16
2023-02-15T09:37:15.740Z,6.27
2023-02-15T09:39:52.072Z,6.35
2023-02-15T09:43:00.385Z,6.40
2023-02-15T09:46:08.736Z,6.48
2023-02-15T09:48:54.557Z,6.53
2023-02-15T09:52:28.847Z,6.55
2023-02-15T09:55:27.062Z,6.66
2023-02-15T09:58:19.014Z,6.67
2023-02-15T10:01:07.485Z,6.69
2023-02-15T10:04:23.180Z,6.73
2023-02-15T10:07:12.908Z,6.73
2023-02-15T10:10:12.361Z,6.79
2023-02-15T10:13:20.258Z,6.84
2023-02-15T10:16:17.774Z,6.74
2023-02-15T10:19:06.998Z,6.70
2023-02-15T10:22:05.713Z,6.67
2023-02-15T10:25:14.783Z,6.70
2023-02-15T10:27:53.957Z,6.69
2023-02-15T10:30:42.485Z,6.67
2023-02-15T10:33:42.554Z,6.66
2023-02-15T10:36:50.240Z,6.73
2023-02-15T10:39:40.728Z,6.69
2023-02-15T10:42:32.906Z,6.67
2023-02-15T10:45:23.458Z,6.63
2023-02-15T10:48:24.893Z,6.62
2023-02-15T10:51:05.284Z,6.62
2023-02-15T10:54:08.958Z,6.64
2023-02-15T10:56:58.598Z,6.68
2023-02-15T11:00:00.693Z,6.73
2023-02-15T11:02:59.271Z,6.73
2023-02-15T11:05:57.331Z,6.74
2023-02-15T11:08:37.825Z,6.77
2023-02-15T11:11:22.911Z,6.82
2023-02-15T11:14:07.767Z,6.86
2023-02-15T11:16:52.662Z,6.87
2023-02-15T11:19:36.787Z,6.88
2023-02-15T11:22:17.763Z,6.88
2023-02-15T11:24:58.645Z,6.89
2023-02-15T11:27:37.193Z,6.88
2023-02-15T11:30:24.771Z,6.92
2023-02-15T11:33:07.700Z,6.97
2023-02-15T11:35:55.989Z,7.01
2023-02-15T11:38:36.576Z,7.01
2023-02-15T11:41:17.998Z,7.04
2023-02-15T11:44:07.167Z,7.06
2023-02-15T11:46:43.896Z,7.08
2023-02-15T11:49:36.268Z,7.13
2023-02-15T11:52:19.624Z,7.18
2023-02-15T11:54:57.348Z,7.18
2023-02-15T11:57:42.888Z,7.24
2023-02-15T12:00:36.889Z,7.30
2023-02-15T12:03:29.371Z,7.34
2023-02-15T12:06:15.329Z,7.40
2023-02-15T12:09:02.509Z,7.44
2023-02-15T12:11:46.035Z,7.49
2023-02-15T12:14:22.503Z,7.49
2023-02-15T12:17:00.732Z,7.51
2023-02-15T12:19:42.692Z,7.55
2023-02-15T12:22:30.465Z,7.60
2023-02-15T12:25:25.486Z,7.66
2023-02-15T12:28:02.134Z,7.71
2023-02-15T12:30:45.069Z,7.72
2023-02-15T12:33:34.824Z,7.71
2023-02-15T12:36:24.915Z,7.74
2023-02-15T12:39:30.144Z,7.74
2023-02-15T12:42:21.091Z,7.76
2023-02-15T12:45:23.235Z,7.77
2023-02-15T12:48:19.139Z,7.78
2023-02-15T12:51:11.601Z,7.79
2023-02-15T12:53:48.086Z,7.80
2023-02-15T12:56:31.480Z,7.80
2023-02-15T12:59:23.158Z,7.81
2023-02-15T13:02:04.179Z,7.84
2023-02-15T13:04:49.904Z,7.86
2023-02-15T13:07:33.067Z,7.86
2023-02-15T13:10:25.629Z,7.89
2023-02-15T13:13:04.075Z,7.90
2023-02-15T13:15:48.268Z,7.91
2023-02-15T13:18:36.470Z,7.96
2023-02-15T13:21:21.314Z,8.01
2023-02-15T13:24:04.892Z,8.04
2023-02-15T13:26:45.824Z,8.04
2023-02-15T13:29:30.113Z,8.03
2023-02-15T13:32:23.434Z,8.04
2023-02-15T13:35:06.424Z,8.01
2023-02-15T13:38:27.902Z,7.99
2023-02-15T13:41:13.599Z,8.01
2023-02-15T13:44:06.370Z,8.02
2023-02-15T13:47:08.026Z,8.03
2023-02-15T13:50:06.714Z,8.04
2023-02-15T13:52:59.166Z,8.04
2023-02-15T13:55:46.619Z,8.06
2023-02-15T13:58:57.267Z,8.05
2023-02-15T14:01:46.472Z,8.06
2023-02-15T14:05:00.764Z,8.08
2023-02-15T14:07:58.669Z,8.07
2023-02-15T14:10:59.709Z,8.06
2023-02-15T14:14:14.111Z,8.05
2023-02-15T14:17:07.062Z,8.05
2023-02-15T14:19:54.823Z,8.06
2023-02-15T14:22:41.991Z,8.01
2023-02-15T14:25:37.818Z,7.99
2023-02-15T14:28:24.920Z,7.98
2023-02-15T14:31:02.936Z,7.97
2023-02-15T14:33:49.619Z,7.95
2023-02-15T14:36:27.894Z,7.94
2023-02-15T14:39:42.893Z,7.90
2023-02-15T14:42:33.766Z,7.90
2023-02-15T14:45:27.403Z,7.88
2023-02-15T14:48:15.471Z,7.87
2023-02-15T14:50:53.336Z,7.85
2023-02-15T14:53:45.496Z,7.81
2023-02-15T14:56:34.480Z,7.76
2023-02-15T14:59:27.939Z,7.74
2023-02-15T15:02:19.405Z,7.70
2023-02-15T15:05:11.927Z,7.65
2023-02-15T15:07:54.830Z,7.59
2023-02-15T15:10:50.227Z,7.57
2023-02-15T15:14:05.219Z,7.55
2023-02-15T15:16:57.670Z,7.50
2023-02-15T15:20:09.398Z,7.43
2023-02-15T15:22:48.497Z,7.37
2023-02-15T15:25:50.047Z,7.32
2023-02-15T15:29:03.501Z,7.24
2023-02-15T15:31:57.829Z,7.16
2023-02-15T15:35:17.514Z,7.08
2023-02-15T15:38:56.459Z,6.99
2023-02-15T15:42:03.398Z,6.88
2023-02-15T15:45:26.905Z,6.80
2023-02-15T15:48:39.154Z,6.69
2023-02-15T15:51:22.547Z,6.57
2023-02-15T15:53:59.643Z,6.47
2023-02-15T15:56:39.653Z,6.38
2023-02-15T15:59:28.595Z,6.29
2023-02-15T16:02:16.551Z,6.19
2023-02-15T16:04:53.124Z,6.10
2023-02-15T16:07:31.954Z,6.01
2023-02-15T16:10:24.813Z,5.93
2023-02-15T16:13:01.164Z,5.84
2023-02-15T16:15:50.671Z,5.74
2023-02-15T16:18:30.995Z,5.65
2023-02-15T16:21:16.462Z,5.57
2023-02-15T16:24:45.775Z,5.47
2023-02-15T16:27:41.807Z,5.32
2023-02-15T16:30:45.602Z,5.20
2023-02-15T16:33:22.693Z,5.08
2023-02-15T16:36:04.378Z,4.99
2023-02-15T16:39:12.084Z,4.89
2023-02-15T16:41:49.534Z,4.77
2023-02-15T16:44:27.470Z,4.68
2023-02-15T16:47:04.788Z,4.58
2023-02-15T16:49:45.831Z,4.47
2023-02-15T16:52:27.790Z,4.34
2023-02-15T16:55:05.726Z,4.22
2023-02-15T16:57:47.417Z,4.12
2023-02-15T17:00:32.806Z,4.04
2023-02-15T17:03:25.241Z,3.98
2023-02-15T17:06:04.482Z,3.89
2023-02-15T17:08:48.210Z,3.83
2023-02-15T17:11:38.571Z,3.75
2023-02-15T17:14:42.135Z,3.68
2023-02-15T17:17:22.782Z,3.62
2023-02-15T17:20:00.544Z,3.57
2023-02-15T17:22:41.647Z,3.50
2023-02-15T17:25:34.105Z,3.45
2023-02-15T17:28:23.506Z,3.39
2023-02-15T17:31:01.957Z,3.32
2023-02-15T17:33:44.410Z,3.27
2023-02-15T17:36:25.373Z,3.23
2023-02-15T17:39:24.666Z,3.17
2023-02-15T17:42:00.914Z,3.09
2023-02-15T17:44:37.400Z,3.05
2023-02-15T17:47:21.673Z,3.00
2023-02-15T17:49:58.631Z,2.93
2023-02-15T17:52:38.378Z,2.89
2023-02-15T17:55:40.170Z,2.86
2023-02-15T17:58:20.196Z,2.78
2023-02-15T18:01:19.804Z,2.72
2023-02-15T18:04:15.185Z,2.66
2023-02-15T18:07:09.642Z,2.59
2023-02-15T18:10:03.607Z,2.55
2023-02-15T18:12:41.507Z,2.49
2023-02-15T18:15:17.990Z,2.45
2023-02-15T18:17:54.379Z,2.41
2023-02-15T18:20:37.312Z,2.41
2023-02-15T18:23:17.973Z,2.39
2023-02-15T18:25:54.398Z,2.36
2023-02-15T18:28:30.763Z,2.29
2023-02-15T18:31:07.844Z,2.25
2023-02-15T18:33:49.521Z,2.20
2023-02-15T18:36:32.709Z,2.16
2023-02-15T18:39:25.564Z,2.10
2023-02-15T18:42:03.384Z,2.04
2023-02-15T18:44:39.761Z,1.98
2023-02-15T18:47:16.325Z,1.94
2023-02-15T18:49:53.202Z,1.89
2023-02-15T18:52:36.268Z,1.83
2023-02-15T18:55:29.263Z,1.78
2023-02-15T18:58:06.225Z,1.72
2023-02-15T19:00:43.540Z,1.66
2023-02-15T19:03:20.687Z,1.61
2023-02-15T19:05:57.385Z,1.56
2023-02-15T19:08:33.961Z,1.53
2023-02-15T19:11:16.887Z,1.49
2023-02-15T19:13:54.357Z,1.45
2023-02-15T19:16:38.447Z,1.40
2023-02-15T19:19:14.895Z,1.36
2023-02-15T19:21:52.074Z,1.30
2023-02-15T19:24:38.122Z,1.23
2023-02-15T19:27:27.435Z,1.16
2023-02-15T19:30:09.854Z,1.10
2023-02-15T19:32:47.514Z,1.05
2023-02-15T19:35:28.098Z,1.02
2023-02-15T19:38:09.866Z,0.99
2023-02-15T19:40:45.209Z,0.95
2023-02-15T19:43:26.416Z,0.92
2023-02-15T19:46:03.911Z,0.90
2023-02-15T19:48:40.350Z,0.88
2023-02-15T19:51:17.961Z,0.84
2023-02-15T19:53:55.673Z,0.81
2023-02-15T19:56:33.284Z,0.79
2023-02-15T19:59:27.152Z,0.74
2023-02-15T20:02:03.872Z,0.67
2023-02-15T20:04:40.988Z,0.63
2023-02-15T20:07:29.436Z,0.61
2023-02-15T20:10:14.828Z,0.57
2023-02-15T20:12:51.829Z,0.53
2023-02-15T20:15:32.038Z,0.50
2023-02-15T20:18:08.992Z,0.47
2023-02-15T20:20:50.561Z,0.44
2023-02-15T20:23:31.656Z,0.42
2023-02-15T20:26:18.705Z,0.37
2023-02-15T20:28:55.503Z,0.32
2023-02-15T20:31:33.017Z,0.29
2023-02-15T20:34:10.019Z,0.26
2023-02-15T20:36:46.790Z,0.24
2023-02-15T20:39:23.750Z,0.22
2023-02-15T20:42:00.411Z,0.16
2023-02-15T20:44:37.562Z,0.13
2023-02-15T20:47:14.296Z,0.12
2023-02-15T20:49:51.466Z,0.11
2023-02-15T20:52:27.905Z,0.09
2023-02-15T20:55:04.604Z,0.06
2023-02-15T20:57:41.003Z,0.06
2023-02-15T21:00:25.713Z,0.05
2023-02-15T21:03:12.443Z,0.02
2023-02-15T21:05:49.821Z,0.01
2023-02-15T21:08:28.503Z,0.00
2023-02-15T21:11:05.653Z,0.01
2023-02-15T21:13:43.015Z,0.00
2023-02-15T21:16:20.367Z,-0.00
2023-02-15T21:18:56.978Z,-0.01
2023-02-15T21:21:33.431Z,-0.03
2023-02-15T21:24:16.767Z,-0.03
2023-02-15T21:26:53.991Z,-0.04
2023-02-15T21:29:32.836Z,-0.06
2023-02-15T21:32:11.043Z,-0.08
2023-02-15T21:34:48.066Z,-0.13
2023-02-15T21:37:38.025Z,-0.15
2023-02-15T21:40:30.930Z,-0.16
2023-02-15T21:43:30.285Z,-0.19
2023-02-15T21:46:34.519Z,-0.21
2023-02-15T21:49:11.455Z,-0.22
2023-02-15T21:52:05.337Z,-0.21
2023-02-15T21:54:42.001Z,-0.19
2023-02-15T21:57:22.381Z,-0.21
2023-02-15T21:59:58.853Z,-0.22
2023-02-15T22:02:36.312Z,-0.23
2023-02-15T22:05:22.442Z,-0.22
2023-02-15T22:07:58.763Z,-0.20
2023-02-15T22:10:36.691Z,-0.19
2023-02-15T22:13:22.305Z,-0.17
2023-02-15T22:15:59.778Z,-0.16
2023-02-15T22:18:37.599Z,-0.16
2023-02-15T22:21:16.671Z,-0.15
2023-02-15T22:23:52.986Z,-0.16
2023-02-15T22:26:31.297Z,-0.16
2023-02-15T22:29:08.462Z,-0.16
2023-02-15T22:31:45.255Z,-0.16
2023-02-15T22:34:34.246Z,-0.17
2023-02-15T22:37:11.850Z,-0.16
2023-02-15T22:39:50.638Z,-0.17
2023-02-15T22:42:31.003Z,-0.21
2023-02-15T22:45:08.252Z,-0.26
2023-02-15T22:47:44.874Z,-0.27
2023-02-15T22:50:26.473Z,-0.26
2023-02-15T22:53:05.126Z,-0.28
2023-02-15T22:55:43.001Z,-0.31
2023-02-15T22:58:26.166Z,-0.36
2023-02-15T23:01:03.870Z,-0.41
2023-02-15T23:03:40.605Z,-0.47
2023-02-15T23:06:18.632Z,-0.49
2023-02-15T23:08:54.909Z,-0.52
2023-02-15T23:11:31.528Z,-0.56
2023-02-15T23:14:07.853Z,-0.57
2023-02-15T23:16:44.275Z,-0.58
2023-02-15T23:19:20.838Z,-0.61
2023-02-15T23:21:57.693Z,-0.63
2023-02-15T23:24:35.628Z,-0.63
2023-02-15T23:27:36.594Z,-0.65
2023-02-15T23:30:20.111Z,-0.67
2023-02-15T23:33:02.805Z,-0.67
2023-02-15T23:35:39.046Z,-0.67
2023-02-15T23:38:31.296Z,-0.64
2023-02-15T23:41:20.934Z,-0.64
2023-02-15T23:44:05.464Z,-0.64
2023-02-15T23:46:47.239Z,-0.64
2023-02-15T23:49:24.760Z,-0.64
2023-02-15T23:52:02.113Z,-0.65
2023-02-15T23:54:38.794Z,-0.66
2023-02-15T23:57:17.484Z,-0.68
2023-02-15T23:59:54.312Z,-0.68
